Time;durP1;ratioP1;P1;durP2;ratioP2;P2;SDS_P1;SDS_P2;PMS_P1;PMS_P2;Temp;Humidity;BMP_temperature;BMP_pressure;BME280_temperature;BME280_humidity;BME280_pressure;Samples;Min_cycle;Max_cycle;Signal;HPM_P1;HPM_P2
2021/11/04 00:02:17;;;;;;;13.60;5.00;;;8.10;99.90;;;;;;5024837;28;20466;-73
2021/11/04 00:04:42;;;;;;;15.80;5.80;;;8.10;99.90;;;;;;5024828;28;20029;-72
2021/11/04 00:07:11;;;;;;;11.85;5.32;;;8.10;99.90;;;;;;5023045;28;20026;-71
2021/11/04 00:09:37;;;;;;;13.48;5.00;;;8.10;99.90;;;;;;5023981;28;20103;-72
2021/11/04 00:12:03;;;;;;;15.45;6.28;;;8.10;99.90;;;;;;5028410;28;20030;-73
2021/11/04 00:14:29;;;;;;;12.05;5.25;;;8.10;99.90;;;;;;5028436;28;20183;-71
2021/11/04 00:16:55;;;;;;;13.90;5.50;;;8.20;99.90;;;;;;5029090;28;20058;-71
2021/11/04 00:19:20;;;;;;;11.45;5.47;;;8.10;99.90;;;;;;5027232;28;20030;-71
2021/11/04 00:21:46;;;;;;;15.57;6.85;;;8.10;99.90;;;;;;5026979;28;20032;-72
2021/11/04 00:24:11;;;;;;;13.40;6.05;;;8.10;99.90;;;;;;5028510;28;20037;-72
2021/11/04 00:26:37;;;;;;;15.95;6.55;;;8.10;99.90;;;;;;5036468;28;20104;-73
2021/11/04 00:29:03;;;;;;;15.23;6.18;;;8.10;99.90;;;;;;5048047;28;20054;-72
2021/11/04 00:31:28;;;;;;;18.67;7.05;;;8.10;99.90;;;;;;5048333;28;20049;-75
2021/11/04 00:33:56;;;;;;;14.27;6.80;;;8.10;99.90;;;;;;5048406;28;20053;-71
2021/11/04 00:36:22;;;;;;;15.43;6.72;;;8.10;99.90;;;;;;5048279;28;20028;-72
2021/11/04 00:38:48;;;;;;;23.13;6.38;;;8.10;99.90;;;;;;5048208;28;20029;-72
2021/11/04 00:41:15;;;;;;;14.68;5.75;;;8.10;99.90;;;;;;5047887;28;20050;-73
2021/11/04 00:43:41;;;;;;;17.13;6.10;;;8.10;99.90;;;;;;5046848;28;20029;-72
2021/11/04 00:46:07;;;;;;;22.05;8.40;;;8.10;99.90;;;;;;5048201;28;20128;-71
2021/11/04 00:48:33;;;;;;;14.20;5.65;;;8.10;99.90;;;;;;5048134;28;20030;-71
2021/11/04 00:50:59;;;;;;;15.50;7.25;;;8.10;99.90;;;;;;5048186;28;20029;-72
2021/11/04 00:53:24;;;;;;;18.40;6.68;;;8.00;99.90;;;;;;5048099;28;20112;-72
2021/11/04 00:55:51;;;;;;;17.83;7.72;;;8.00;99.90;;;;;;5047751;28;20045;-72
2021/11/04 00:58:17;;;;;;;14.77;6.35;;;8.00;99.90;;;;;;5047550;28;20497;-70
2021/11/04 01:00:44;;;;;;;13.15;6.10;;;8.10;99.90;;;;;;5046273;28;20043;-70
2021/11/04 01:03:10;;;;;;;12.85;5.93;;;8.00;99.90;;;;;;5047384;28;20022;-71
2021/11/04 01:05:36;;;;;;;16.65;6.60;;;8.10;99.90;;;;;;5047602;28;20025;-71
2021/11/04 01:08:03;;;;;;;20.98;6.82;;;8.10;99.90;;;;;;5047695;28;20029;-71
2021/11/04 01:10:30;;;;;;;15.63;6.63;;;8.00;99.90;;;;;;5047694;28;20051;-72
2021/11/04 01:12:56;;;;;;;18.13;7.50;;;8.00;99.90;;;;;;5046326;28;21110;-71
2021/11/04 01:15:22;;;;;;;17.73;6.50;;;8.00;99.90;;;;;;5047398;28;20029;-70
2021/11/04 01:17:49;;;;;;;11.98;5.63;;;8.00;99.90;;;;;;5045600;28;20029;-72
2021/11/04 01:20:16;;;;;;;14.32;6.18;;;8.00;99.90;;;;;;5047036;28;20033;-70
2021/11/04 01:22:42;;;;;;;12.90;5.43;;;8.00;99.90;;;;;;5047229;28;20029;-72
2021/11/04 01:25:07;;;;;;;15.18;5.80;;;8.00;99.90;;;;;;5047162;28;20025;-73
2021/11/04 01:27:33;;;;;;;13.02;5.57;;;8.00;99.90;;;;;;5047085;28;20054;-72
2021/11/04 01:29:59;;;;;;;14.38;6.07;;;8.00;99.90;;;;;;5047461;28;20052;-73
2021/11/04 01:32:25;;;;;;;16.70;6.75;;;8.00;99.90;;;;;;5047225;28;20096;-71
2021/11/04 01:34:51;;;;;;;16.27;5.72;;;8.00;99.90;;;;;;5047031;28;20620;-70
2021/11/04 01:37:17;;;;;;;13.55;5.57;;;8.00;99.90;;;;;;5045685;28;20116;-71
2021/11/04 01:39:42;;;;;;;13.50;5.07;;;8.00;99.90;;;;;;5046903;28;20025;-71
2021/11/04 01:42:09;;;;;;;14.38;5.72;;;8.00;99.90;;;;;;5046805;28;20029;-72
2021/11/04 01:44:34;;;;;;;15.60;5.90;;;8.00;99.90;;;;;;5046594;28;20029;-73
2021/11/04 01:47:00;;;;;;;17.48;5.65;;;8.00;99.90;;;;;;5047349;28;20033;-72
2021/11/04 01:49:26;;;;;;;14.43;6.43;;;8.00;99.90;;;;;;5045836;28;20048;-71
2021/11/04 01:51:54;;;;;;;18.52;6.55;;;8.00;99.90;;;;;;5045416;28;20589;-72
2021/11/04 01:54:19;;;;;;;18.15;7.57;;;8.00;99.90;;;;;;5045452;28;20025;-71
2021/11/04 01:56:45;;;;;;;15.27;6.35;;;8.00;99.90;;;;;;5044849;28;20049;-73
2021/11/04 01:59:11;;;;;;;14.55;5.85;;;8.00;99.90;;;;;;5046284;28;20075;-71
2021/11/04 02:01:37;;;;;;;15.32;6.20;;;8.00;99.90;;;;;;5046205;28;20041;-72
2021/11/04 02:04:22;;;;;;;18.38;6.70;;;8.00;99.90;;;;;;5046678;28;20037;-72
2021/11/04 02:07:02;;;;;;;;;;;8.00;99.90;;;;;;5043472;28;20025;-72
2021/11/04 02:09:43;;;;;;;10.95;5.30;;;8.00;99.90;;;;;;5026629;28;19912;-73
2021/11/04 02:12:22;;;;;;;14.68;5.82;;;8.00;99.90;;;;;;5026461;28;20030;-71
2021/11/04 02:14:54;;;;;;;12.70;5.55;;;7.90;99.90;;;;;;5026617;28;20406;-72
2021/11/04 02:17:22;;;;;;;13.25;6.28;;;7.90;99.90;;;;;;5026503;28;20057;-71
2021/11/04 02:19:53;;;;;;;14.45;5.65;;;7.90;99.90;;;;;;5026176;28;20061;-71
2021/11/04 02:22:27;;;;;;;16.58;6.93;;;7.90;99.90;;;;;;5026480;28;20034;-71
2021/11/04 02:25:04;;;;;;;11.35;6.45;;;7.90;99.90;;;;;;5026434;28;20040;-71
2021/11/04 02:27:30;;;;;;;12.82;5.85;;;7.90;99.90;;;;;;5024670;28;20072;-71
2021/11/04 02:29:58;;;;;;;12.88;6.10;;;7.90;99.90;;;;;;5026457;28;20021;-71
2021/11/04 02:32:25;;;;;;;11.68;5.38;;;7.90;99.90;;;;;;5026053;28;20459;-71
2021/11/04 02:34:52;;;;;;;12.55;5.65;;;7.90;99.90;;;;;;5025927;28;20033;-70
2021/11/04 02:37:18;;;;;;;13.65;5.60;;;7.90;99.90;;;;;;5024657;28;20115;-73
2021/11/04 02:39:48;;;;;;;13.15;5.35;;;8.00;99.90;;;;;;5026018;28;20038;-72
2021/11/04 02:42:14;;;;;;;13.93;5.72;;;8.00;99.90;;;;;;5025894;28;20905;-72
2021/11/04 02:44:41;;;;;;;11.70;5.78;;;8.00;99.90;;;;;;5025952;28;20030;-71
2021/11/04 02:47:08;;;;;;;12.80;5.22;;;8.00;99.90;;;;;;5025902;28;20029;-75
2021/11/04 02:49:36;;;;;;;12.18;5.93;;;8.00;99.90;;;;;;5024552;28;20029;-71
2021/11/04 02:52:14;;;;;;;;;;;;;;;;;;;;;
2021/11/04 02:54:50;;;;;;;12.60;6.28;;;7.90;99.90;;;;;;5025656;28;20098;-74
2021/11/04 02:57:15;;;;;;;11.35;5.85;;;7.90;99.90;;;;;;5025749;28;20069;-72
2021/11/04 02:59:41;;;;;;;14.48;6.50;;;7.90;99.90;;;;;;5025449;28;20033;-71
2021/11/04 03:02:06;;;;;;;12.02;5.90;;;7.90;99.90;;;;;;5025380;28;20037;-72
2021/11/04 03:04:32;;;;;;;18.40;6.80;;;7.90;99.90;;;;;;5024600;28;20037;-71
2021/11/04 03:06:57;;;;;;;21.45;6.75;;;7.90;99.90;;;;;;5025782;28;20035;-72
2021/11/04 03:09:23;;;;;;;14.40;6.00;;;7.90;99.90;;;;;;5034492;28;20040;-70
2021/11/04 03:11:49;;;;;;;17.13;5.47;;;7.90;99.90;;;;;;5043891;28;20033;-71
2021/11/04 03:14:15;;;;;;;22.83;5.85;;;7.90;99.90;;;;;;5045056;28;20113;-71
2021/11/04 03:16:44;;;;;;;17.83;7.10;;;8.00;99.90;;;;;;5045067;28;20040;-72
2021/11/04 03:19:12;;;;;;;14.85;6.85;;;8.00;99.90;;;;;;5044674;28;20056;-71
2021/11/04 03:21:42;;;;;;;15.30;6.88;;;8.00;99.90;;;;;;5044978;28;20037;-71
2021/11/04 03:24:08;;;;;;;17.90;6.55;;;8.00;99.90;;;;;;5044924;28;20036;-73
2021/11/04 03:26:40;;;;;;;15.32;6.15;;;8.00;99.90;;;;;;5044611;28;20052;-72
2021/11/04 03:29:07;;;;;;;15.23;6.55;;;8.00;99.90;;;;;;5044526;28;20086;-71
2021/11/04 03:31:36;;;;;;;16.48;7.10;;;8.00;99.90;;;;;;5045087;28;20022;-73
2021/11/04 03:34:04;;;;;;;18.55;7.93;;;8.10;99.90;;;;;;5044884;28;20029;-73
2021/11/04 03:36:30;;;;;;;23.13;7.45;;;8.10;99.90;;;;;;5045126;28;20085;-73
2021/11/04 03:38:56;;;;;;;19.85;8.55;;;8.10;99.90;;;;;;5044870;28;20030;-71
2021/11/04 03:41:23;;;;;;;18.83;7.97;;;8.10;99.90;;;;;;5044543;28;20049;-71
2021/11/04 03:43:56;;;;;;;20.60;8.32;;;8.10;99.90;;;;;;5044343;28;20040;-73
2021/11/04 03:46:21;;;;;;;18.38;8.02;;;8.10;99.90;;;;;;5043162;28;20088;-72
2021/11/04 03:48:48;;;;;;;20.35;8.07;;;8.10;99.90;;;;;;5044835;28;20025;-71
2021/11/04 03:51:14;;;;;;;23.08;7.93;;;8.10;99.90;;;;;;5060274;28;20128;-71
2021/11/04 03:53:41;;;;;;;17.00;8.02;;;8.10;99.90;;;;;;5044882;28;20030;-70
2021/11/04 03:56:08;;;;;;;18.48;8.02;;;8.10;99.90;;;;;;5044233;28;20077;-72
2021/11/04 03:58:39;;;;;;;19.90;8.25;;;8.10;99.90;;;;;;5044755;28;20032;-74
2021/11/04 04:01:04;;;;;;;18.25;7.45;;;8.10;99.90;;;;;;5044584;28;20037;-72
2021/11/04 04:03:30;;;;;;;23.98;8.48;;;8.10;99.90;;;;;;5043475;28;20124;-73
2021/11/04 04:05:59;;;;;;;18.58;7.45;;;8.20;99.90;;;;;;5044950;28;20022;-70
2021/11/04 04:08:25;;;;;;;16.45;7.55;;;8.20;99.90;;;;;;5044458;28;20036;-71
2021/11/04 04:10:51;;;;;;;18.27;9.60;;;8.20;99.90;;;;;;5044225;28;20037;-71
2021/11/04 04:13:16;;;;;;;17.65;8.13;;;8.20;99.90;;;;;;5044415;28;20029;-72
2021/11/04 04:15:42;;;;;;;16.42;7.28;;;8.20;99.90;;;;;;5043117;28;20048;-74
2021/11/04 04:18:08;;;;;;;23.75;8.48;;;8.20;99.90;;;;;;5042888;28;20026;-72
2021/11/04 04:20:33;;;;;;;24.67;9.27;;;8.10;99.90;;;;;;5044206;28;20121;-72
2021/11/04 04:22:59;;;;;;;23.88;8.98;;;8.10;99.90;;;;;;5044454;28;20056;-70
2021/11/04 04:25:25;;;;;;;18.13;8.00;;;8.10;99.90;;;;;;5044468;28;20033;-71
2021/11/04 04:27:50;;;;;;;23.58;10.02;;;8.10;99.90;;;;;;5043839;28;20057;-71
2021/11/04 04:30:16;;;;;;;24.30;8.82;;;8.10;99.90;;;;;;5043853;28;20030;-71
2021/11/04 04:32:41;;;;;;;22.92;10.00;;;8.10;99.90;;;;;;5044171;28;20496;-73
2021/11/04 04:35:07;;;;;;;17.02;8.23;;;8.20;99.90;;;;;;5043946;28;20056;-72
2021/11/04 04:37:33;;;;;;;30.75;8.98;;;8.20;99.90;;;;;;5044053;28;20060;-71
2021/11/04 04:39:59;;;;;;;30.48;9.27;;;8.10;99.90;;;;;;5044256;28;20077;-71
2021/11/04 04:42:24;;;;;;;20.10;9.38;;;8.20;99.90;;;;;;5043673;28;20033;-72
2021/11/04 04:44:51;;;;;;;23.58;9.95;;;8.20;99.90;;;;;;5044047;28;20462;-70
2021/11/04 04:47:17;;;;;;;25.85;9.75;;;8.20;99.90;;;;;;5044104;28;20052;-71
2021/11/04 04:49:42;;;;;;;20.50;9.25;;;8.20;99.90;;;;;;5044060;28;20037;-71
2021/11/04 04:52:09;;;;;;;24.17;9.02;;;8.20;99.90;;;;;;5044051;28;20053;-71
2021/11/04 04:54:34;;;;;;;26.60;10.05;;;8.20;99.90;;;;;;5042654;28;20079;-73
2021/11/04 04:57:00;;;;;;;22.05;8.35;;;8.20;99.90;;;;;;5046721;28;20025;-73
2021/11/04 04:59:26;;;;;;;27.73;8.35;;;8.20;99.90;;;;;;5047827;28;20060;-72
2021/11/04 05:01:51;;;;;;;19.60;8.25;;;8.20;99.90;;;;;;5047445;28;20037;-73
2021/11/04 05:04:17;;;;;;;18.35;8.23;;;8.20;99.90;;;;;;5047468;28;20052;-71
2021/11/04 05:06:43;;;;;;;20.73;8.25;;;8.20;99.90;;;;;;5047503;28;20022;-72
2021/11/04 05:09:08;;;;;;;23.42;9.30;;;8.20;99.90;;;;;;5047470;28;20025;-71
2021/11/04 05:11:34;;;;;;;27.40;10.45;;;8.20;99.90;;;;;;5047269;28;20025;-70
2021/11/04 05:14:00;;;;;;;27.80;9.25;;;8.20;99.90;;;;;;5047235;28;20029;-70
2021/11/04 05:16:26;;;;;;;24.08;9.02;;;8.20;99.90;;;;;;5046290;28;20045;-71
2021/11/04 05:18:51;;;;;;;30.80;9.43;;;8.20;99.90;;;;;;5047363;28;20017;-71
2021/11/04 05:21:17;;;;;;;25.30;9.13;;;8.20;99.90;;;;;;5047177;28;20049;-70
2021/11/04 05:23:42;;;;;;;25.73;9.52;;;8.20;99.90;;;;;;5047253;28;20386;-71
2021/11/04 05:26:10;;;;;;;23.88;9.10;;;8.20;99.90;;;;;;5046978;28;20033;-72
2021/11/04 05:28:36;;;;;;;25.65;8.88;;;8.20;99.90;;;;;;5047073;28;20049;-73
2021/11/04 05:31:03;;;;;;;20.42;9.45;;;8.20;99.90;;;;;;5045670;28;20068;-72
2021/11/04 05:33:29;;;;;;;20.55;8.10;;;8.20;99.90;;;;;;5045984;28;20034;-72
2021/11/04 05:35:55;;;;;;;16.73;7.80;;;8.20;99.90;;;;;;5062532;28;20124;-74
2021/11/04 05:38:20;;;;;;;16.38;8.13;;;8.20;99.90;;;;;;5046559;28;20029;-72
2021/11/04 05:40:46;;;;;;;21.67;8.77;;;8.20;99.90;;;;;;5045666;28;20038;-71
2021/11/04 05:43:13;;;;;;;23.80;8.60;;;8.20;99.90;;;;;;5045591;28;20021;-73
2021/11/04 05:45:38;;;;;;;26.48;10.07;;;8.20;99.90;;;;;;5046811;28;20029;-72
2021/11/04 05:48:04;;;;;;;20.02;8.90;;;8.20;99.90;;;;;;5046662;28;20120;-71
2021/11/04 05:50:30;;;;;;;19.10;8.65;;;8.20;99.90;;;;;;5047280;28;20390;-74
2021/11/04 05:52:56;;;;;;;25.25;9.15;;;8.20;99.90;;;;;;5046860;28;20033;-71
2021/11/04 05:55:21;;;;;;;25.05;9.73;;;8.20;99.90;;;;;;5046809;28;20025;-72
2021/11/04 05:57:47;;;;;;;22.38;7.60;;;8.20;99.90;;;;;;5045158;28;20053;-71
2021/11/04 06:00:13;;;;;;;18.52;7.65;;;8.20;99.90;;;;;;5046734;28;20038;-70
2021/11/04 06:02:39;;;;;;;22.13;9.27;;;8.10;99.90;;;;;;5047368;28;20029;-71
2021/11/04 06:05:05;;;;;;;25.30;9.68;;;8.10;99.90;;;;;;5046754;28;20026;-72
2021/11/04 06:07:31;;;;;;;17.23;7.40;;;8.20;99.90;;;;;;5045937;28;20040;-71
2021/11/04 06:09:57;;;;;;;23.15;8.57;;;8.10;99.90;;;;;;5046641;28;20037;-70
2021/11/04 06:12:23;;;;;;;22.92;9.30;;;8.20;99.90;;;;;;5046260;28;20120;-73
2021/11/04 06:14:49;;;;;;;20.73;8.40;;;8.10;99.90;;;;;;5046559;28;20478;-74
2021/11/04 06:17:14;;;;;;;20.85;8.80;;;8.20;99.90;;;;;;5046338;28;20030;-72
2021/11/04 06:19:40;;;;;;;30.75;8.32;;;8.10;99.90;;;;;;5045897;28;20093;-74
2021/11/04 06:22:05;;;;;;;24.02;9.10;;;8.10;99.90;;;;;;5046113;28;20079;-76
2021/11/04 06:24:32;;;;;;;19.27;9.50;;;8.10;99.90;;;;;;5046110;28;20029;-74
2021/11/04 06:26:58;;;;;;;22.17;7.43;;;8.10;99.90;;;;;;5045944;28;20034;-74
2021/11/04 06:29:23;;;;;;;23.20;8.18;;;8.10;99.90;;;;;;5045972;28;20088;-75
2021/11/04 06:31:49;;;;;;;17.13;7.60;;;8.10;99.90;;;;;;5043951;28;20104;-74
2021/11/04 06:34:15;;;;;;;19.63;8.75;;;8.10;99.90;;;;;;5036246;28;20022;-75
2021/11/04 06:36:40;;;;;;;20.15;8.30;;;8.10;99.90;;;;;;5064067;28;20474;-74
2021/11/04 06:39:06;;;;;;;26.45;9.18;;;8.10;99.90;;;;;;5044676;28;20033;-76
2021/11/04 06:41:32;;;;;;;19.65;8.32;;;8.10;99.90;;;;;;5044521;28;20108;-78
2021/11/04 06:43:57;;;;;;;21.65;8.90;;;8.10;99.90;;;;;;5041827;28;20079;-74
2021/11/04 06:46:26;;;;;;;27.52;9.82;;;8.10;99.90;;;;;;5030765;28;20026;-76
2021/11/04 06:49:00;;;;;;;21.42;10.05;;;8.10;99.90;;;;;;5043762;28;20108;-74
2021/11/04 06:51:28;;;;;;;23.40;9.25;;;8.10;99.90;;;;;;5045140;28;20067;-76
2021/11/04 06:53:56;;;;;;;20.17;8.95;;;8.10;99.90;;;;;;5044495;28;20029;-74
2021/11/04 06:56:25;;;;;;;19.02;8.38;;;8.10;99.90;;;;;;5061852;28;20025;-74
2021/11/04 06:58:53;;;;;;;22.52;8.95;;;8.10;99.90;;;;;;5065350;28;20061;-73
2021/11/04 07:01:21;;;;;;;23.38;7.72;;;8.20;99.90;;;;;;5065244;28;20047;-74
2021/11/04 07:04:10;;;;;;;23.40;8.48;;;8.20;99.90;;;;;;5054783;28;20071;-74
2021/11/04 07:06:44;;;;;;;25.33;9.63;;;8.20;99.90;;;;;;5039782;28;20021;-75
2021/11/04 07:09:10;;;;;;;;;;;8.20;99.90;;;;;;5030097;28;20017;-76
2021/11/04 07:11:36;;;;;;;28.67;8.93;;;8.20;99.90;;;;;;5026956;28;20336;-76
2021/11/04 07:14:02;;;;;;;19.05;7.95;;;8.20;99.90;;;;;;5037445;28;20078;-73
2021/11/04 07:16:29;;;;;;;32.40;9.05;;;8.10;99.90;;;;;;5051813;28;20029;-75
2021/11/04 07:18:57;;;;;;;14.45;7.78;;;8.10;99.90;;;;;;5056781;28;20033;-76
2021/11/04 07:21:47;;;;;;;19.52;8.27;;;8.10;99.90;;;;;;5058646;28;20052;-74
2021/11/04 07:24:32;;;;;;;19.92;8.82;;;8.10;99.90;;;;;;5049331;28;20037;-75
2021/11/04 07:27:08;;;;;;;17.45;9.02;;;8.10;99.90;;;;;;5050300;28;20037;-75
2021/11/04 07:29:40;;;;;;;24.20;7.85;;;8.10;99.90;;;;;;5046980;28;20090;-76
2021/11/04 07:32:14;;;;;;;16.98;7.75;;;8.10;99.90;;;;;;5037255;28;20032;-78
2021/11/04 07:34:43;;;;;;;18.58;8.18;;;8.10;99.90;;;;;;5032400;28;20032;-76
2021/11/04 07:37:11;;;;;;;22.35;8.95;;;8.20;99.90;;;;;;5045123;28;20021;-75
2021/11/04 07:39:39;;;;;;;21.55;8.38;;;8.20;99.90;;;;;;5044699;28;20017;-75
2021/11/04 07:42:07;;;;;;;21.35;9.38;;;8.20;99.90;;;;;;5028984;28;20025;-75
2021/11/04 07:44:33;;;;;;;23.50;9.23;;;8.20;99.90;;;;;;5025034;28;20085;-78
2021/11/04 07:47:01;;;;;;;14.48;6.38;;;8.20;99.90;;;;;;5024661;28;20041;-75
2021/11/04 07:49:26;;;;;;;22.38;8.48;;;8.30;99.90;;;;;;5024947;28;20096;-76
2021/11/04 07:51:56;;;;;;;23.92;7.38;;;8.30;99.90;;;;;;5033679;28;20046;-73
2021/11/04 07:54:22;;;;;;;24.42;7.50;;;8.30;99.90;;;;;;5024806;28;20022;-73
2021/11/04 07:56:47;;;;;;;19.55;7.78;;;8.30;99.90;;;;;;5040646;28;20076;-75
2021/11/04 07:59:13;;;;;;;18.45;7.72;;;8.40;99.90;;;;;;5023019;28;20065;-72
2021/11/04 08:01:38;;;;;;;21.55;7.97;;;8.40;99.90;;;;;;5038502;28;20583;-73
2021/11/04 08:04:04;;;;;;;20.52;8.00;;;8.40;99.90;;;;;;5044366;28;20041;-74
2021/11/04 08:06:31;;;;;;;17.52;7.78;;;8.40;99.90;;;;;;5040819;28;20120;-74
2021/11/04 08:08:57;;;;;;;14.75;6.88;;;8.40;99.90;;;;;;5042055;28;20044;-75
2021/11/04 08:11:22;;;;;;;15.93;6.90;;;8.40;99.90;;;;;;5025146;28;20030;-74
2021/11/04 08:13:48;;;;;;;18.75;8.40;;;8.30;99.90;;;;;;5022997;28;20153;-75
2021/11/04 08:16:13;;;;;;;18.40;7.40;;;8.40;99.90;;;;;;5024528;28;20021;-74
2021/11/04 08:18:39;;;;;;;15.73;7.30;;;8.40;99.90;;;;;;5028682;28;20030;-77
2021/11/04 08:21:04;;;;;;;19.02;7.78;;;8.40;99.90;;;;;;5036071;28;20441;-76
2021/11/04 08:23:33;;;;;;;17.65;7.10;;;8.50;99.90;;;;;;5041411;28;20025;-75
2021/11/04 08:25:59;;;;;;;16.52;7.00;;;8.50;99.90;;;;;;5040245;28;20033;-76
2021/11/04 08:28:25;;;;;;;16.70;7.82;;;8.50;99.90;;;;;;5033957;28;20152;-75
2021/11/04 08:30:51;;;;;;;18.50;7.53;;;8.60;99.90;;;;;;5045124;28;20033;-75
2021/11/04 08:33:17;;;;;;;19.63;7.22;;;8.60;99.90;;;;;;5051035;28;20030;-75
2021/11/04 08:35:47;;;;;;;16.40;6.95;;;8.70;99.90;;;;;;5048022;28;20062;-76
2021/11/04 08:38:13;;;;;;;19.48;7.82;;;8.70;99.90;;;;;;5045210;28;20105;-73
2021/11/04 08:40:39;;;;;;;18.15;7.25;;;8.70;99.90;;;;;;5045580;28;20057;-74
2021/11/04 08:43:05;;;;;;;20.23;7.72;;;8.80;99.90;;;;;;5047628;28;20061;-76
2021/11/04 08:45:31;;;;;;;19.98;8.70;;;8.80;99.90;;;;;;5047666;28;20032;-74
2021/11/04 08:47:57;;;;;;;16.50;7.55;;;8.80;99.90;;;;;;5047798;28;20567;-77
2021/11/04 08:50:22;;;;;;;18.40;8.02;;;8.80;99.90;;;;;;5047200;28;20022;-74
2021/11/04 08:52:52;;;;;;;20.35;7.38;;;8.90;99.90;;;;;;5045884;28;20025;-77
2021/11/04 08:55:17;;;;;;;18.40;7.18;;;8.90;99.90;;;;;;5047336;28;20048;-75
2021/11/04 08:57:43;;;;;;;18.95;7.25;;;8.90;99.90;;;;;;5046139;28;20029;-76
2021/11/04 09:00:10;;;;;;;21.27;7.30;;;8.90;99.90;;;;;;5047246;28;20048;-74
2021/11/04 09:02:36;;;;;;;18.75;7.07;;;8.90;99.90;;;;;;5045864;28;20501;-73
2021/11/04 09:05:06;;;;;;;23.98;7.50;;;8.90;99.90;;;;;;5046409;28;20022;-76
2021/11/04 09:07:32;;;;;;;16.85;7.10;;;9.00;99.90;;;;;;5045553;28;20029;-75
2021/11/04 09:10:10;;;;;;;18.95;7.07;;;9.00;99.90;;;;;;5040890;28;20094;-77
2021/11/04 09:12:38;;;;;;;18.85;7.50;;;9.00;99.90;;;;;;5049086;28;20033;-76
2021/11/04 09:15:05;;;;;;;13.48;6.45;;;8.90;99.90;;;;;;5041186;28;20022;-77
2021/11/04 09:17:31;;;;;;;13.65;6.28;;;9.00;99.90;;;;;;5028411;28;20045;-76
2021/11/04 09:19:57;;;;;;;20.65;7.72;;;8.90;99.90;;;;;;5037000;28;20049;-74
2021/11/04 09:22:27;;;;;;;21.17;6.88;;;9.00;99.90;;;;;;5038224;28;20059;-75
2021/11/04 09:24:53;;;;;;;15.45;6.03;;;8.90;99.90;;;;;;5046008;28;20030;-75
2021/11/04 09:27:19;;;;;;;20.42;7.38;;;9.00;99.90;;;;;;5046870;28;20046;-75
2021/11/04 09:29:46;;;;;;;21.65;6.45;;;9.00;99.90;;;;;;5042375;28;20028;-76
2021/11/04 09:32:12;;;;;;;21.58;6.90;;;9.10;99.90;;;;;;5026506;28;20422;-74
2021/11/04 09:34:39;;;;;;;19.58;6.65;;;9.10;99.90;;;;;;5038803;28;20030;-75
2021/11/04 09:37:09;;;;;;;14.10;6.18;;;9.10;99.90;;;;;;5026252;28;20355;-76
2021/11/04 09:39:35;;;;;;;13.45;6.68;;;9.10;99.90;;;;;;5025333;28;20030;-74
2021/11/04 09:42:04;;;;;;;18.65;6.50;;;9.10;99.90;;;;;;5026357;28;20029;-75
2021/11/04 09:44:31;;;;;;;19.92;7.88;;;9.10;99.90;;;;;;5037587;28;20088;-78
2021/11/04 09:46:57;;;;;;;17.40;7.40;;;9.10;99.90;;;;;;5036621;28;20506;-74
2021/11/04 09:49:27;;;;;;;15.95;6.22;;;9.10;99.90;;;;;;5041356;28;20026;-73
2021/11/04 09:51:54;;;;;;;12.75;6.22;;;9.10;99.90;;;;;;5043609;28;20036;-74
2021/11/04 09:54:23;;;;;;;15.57;5.53;;;9.10;99.90;;;;;;5026556;28;20073;-75
2021/11/04 09:56:53;;;;;;;11.75;5.63;;;9.20;99.90;;;;;;5044473;28;20036;-75
2021/11/04 09:59:19;;;;;;;9.98;4.15;;;9.20;99.90;;;;;;5044041;28;20034;-75
2021/11/04 10:01:49;;;;;;;12.65;5.60;;;9.10;99.90;;;;;;5042193;28;20048;-73
2021/11/04 10:04:15;;;;;;;10.90;5.50;;;9.10;99.90;;;;;;5040250;28;20026;-74
2021/11/04 10:06:41;;;;;;;13.32;4.93;;;9.10;99.90;;;;;;5051614;28;20037;-74
2021/11/04 10:09:10;;;;;;;12.50;5.40;;;9.10;99.90;;;;;;5041305;28;20025;-74
2021/11/04 10:11:42;;;;;;;11.93;5.18;;;9.10;99.90;;;;;;5045301;28;20635;-75
2021/11/04 10:14:10;;;;;;;9.48;4.85;;;9.20;99.90;;;;;;5044081;28;20026;-75
2021/11/04 10:16:37;;;;;;;12.35;4.88;;;9.20;99.90;;;;;;5046454;28;20053;-75
2021/11/04 10:19:05;;;;;;;14.95;5.80;;;9.30;99.90;;;;;;5044770;28;20034;-75
2021/11/04 10:21:32;;;;;;;11.85;4.70;;;9.30;99.90;;;;;;5028483;28;20050;-75
2021/11/04 10:23:59;;;;;;;11.30;4.85;;;9.30;99.90;;;;;;5031428;28;20120;-75
2021/11/04 10:26:30;;;;;;;9.75;4.80;;;9.30;99.90;;;;;;5045172;28;20025;-75
2021/11/04 10:29:10;;;;;;;11.27;4.60;;;9.30;99.90;;;;;;5024710;28;20161;-75
2021/11/04 10:31:52;;;;;;;10.88;4.80;;;9.40;99.90;;;;;;5030473;28;20095;-75
2021/11/04 10:34:37;;;;;;;9.00;4.05;;;9.30;99.90;;;;;;5028611;28;20022;-74
2021/11/04 10:37:09;;;;;;;;;;;9.30;99.90;;;;;;5044792;28;20037;-74
2021/11/04 10:39:38;;;;;;;9.65;4.18;;;9.30;99.90;;;;;;5024770;28;19932;-75
2021/11/04 10:42:04;;;;;;;7.15;3.83;;;9.30;99.90;;;;;;5026122;28;20053;-75
2021/11/04 10:44:31;;;;;;;7.57;4.30;;;9.40;99.90;;;;;;5028946;28;20026;-74
2021/11/04 10:46:58;;;;;;;6.38;3.88;;;9.40;99.90;;;;;;5033937;28;20022;-77
2021/11/04 10:49:39;;;;;;;8.95;4.15;;;9.30;99.90;;;;;;5044225;28;20029;-74
2021/11/04 10:52:07;;;;;;;9.77;4.70;;;9.30;99.90;;;;;;5044487;28;20057;-77
2021/11/04 10:54:48;;;;;;;15.68;4.70;;;9.30;99.90;;;;;;5043970;28;20033;-77
2021/11/04 10:57:31;;;;;;;7.72;3.92;;;9.40;99.90;;;;;;5026426;28;20022;-75
2021/11/04 11:00:16;;;;;;;9.75;3.45;;;9.30;99.90;;;;;;5024462;28;20042;-74
2021/11/04 11:02:57;;;;;;;9.27;4.65;;;9.40;99.90;;;;;;5055184;28;20021;-76
2021/11/04 11:05:27;;;;;;;10.15;4.25;;;9.40;99.90;;;;;;5043192;28;20041;-76
2021/11/04 11:07:54;;;;;;;8.15;4.22;;;9.50;99.90;;;;;;5061659;28;20051;-75
2021/11/04 11:10:21;;;;;;;7.53;3.42;;;9.60;99.90;;;;;;5061369;28;20021;-77
2021/11/04 11:12:47;;;;;;;9.05;4.53;;;9.50;99.90;;;;;;5026998;28;20089;-77
2021/11/04 11:15:21;;;;;;;8.57;4.43;;;9.60;99.90;;;;;;5024729;28;20053;-78
2021/11/04 11:17:48;;;;;;;7.80;3.90;;;9.60;99.90;;;;;;5029974;28;20037;-73
2021/11/04 11:20:15;;;;;;;8.30;3.22;;;9.70;99.90;;;;;;5036517;28;20049;-75
2021/11/04 11:22:42;;;;;;;6.85;3.80;;;9.70;99.90;;;;;;5042505;28;20482;-75
2021/11/04 11:25:10;;;;;;;8.05;3.45;;;9.60;99.90;;;;;;5042787;28;20025;-76
2021/11/04 11:27:37;;;;;;;6.65;3.10;;;9.70;99.90;;;;;;5042007;28;20045;-75
2021/11/04 11:30:09;;;;;;;4.35;2.63;;;9.70;99.90;;;;;;5044213;28;20486;-76
2021/11/04 11:32:36;;;;;;;6.40;3.42;;;9.70;99.90;;;;;;5044130;28;20073;-76
2021/11/04 11:35:18;;;;;;;3.53;2.17;;;9.70;99.90;;;;;;5057265;28;20034;-76
2021/11/04 11:38:01;;;;;;;5.28;2.58;;;9.70;99.90;;;;;;5032113;28;20094;-76
2021/11/04 11:40:31;;;;;;;5.50;2.45;;;9.70;99.90;;;;;;5024394;28;20069;-76
2021/11/04 11:43:14;;;;;;;5.07;2.40;;;9.70;99.90;;;;;;5022373;28;20036;-76
2021/11/04 11:45:42;;;;;;;4.83;2.33;;;9.70;99.90;;;;;;5024076;28;20026;-75
2021/11/04 11:48:22;;;;;;;5.97;2.88;;;9.70;99.90;;;;;;5023072;28;20026;-76
2021/11/04 11:50:49;;;;;;;3.60;2.28;;;9.70;99.90;;;;;;5023235;28;20030;-76
2021/11/04 11:53:24;;;;;;;3.78;2.17;;;9.60;99.90;;;;;;5024087;28;20022;-77
2021/11/04 11:55:52;;;;;;;4.60;2.50;;;9.60;99.90;;;;;;5024075;28;20049;-77
2021/11/04 11:58:30;;;;;;;6.53;3.00;;;9.60;99.90;;;;;;5023847;28;20026;-77
2021/11/04 12:00:57;;;;;;;6.10;2.65;;;9.70;99.90;;;;;;5022958;28;20852;-77
2021/11/04 12:03:41;;;;;;;8.45;2.47;;;9.70;99.90;;;;;;5023778;28;20028;-75
2021/11/04 12:06:11;;;;;;;5.07;2.50;;;9.60;99.90;;;;;;5023214;28;20025;-76
2021/11/04 12:08:47;;;;;;;7.15;2.85;;;9.70;99.90;;;;;;5032867;28;20393;-79
2021/11/04 12:11:36;;;;;;;5.90;2.70;;;9.70;99.90;;;;;;5037528;28;20034;-77
2021/11/04 12:14:24;;;;;;;4.10;2.25;;;9.80;99.90;;;;;;5022064;28;20037;-75
2021/11/04 12:17:03;;;;;;;3.63;2.08;;;9.70;99.90;;;;;;5031352;28;20029;-75
2021/11/04 12:19:33;;;;;;;7.63;2.38;;;9.70;99.90;;;;;;5042932;28;20453;-77
2021/11/04 12:21:58;;;;;;;5.18;2.65;;;9.70;99.90;;;;;;5041893;28;20052;-76
2021/11/04 12:24:24;;;;;;;3.97;2.25;;;9.70;99.90;;;;;;5029204;28;20030;-77
2021/11/04 12:26:51;;;;;;;6.47;2.42;;;9.80;99.90;;;;;;5039670;28;20053;-76
2021/11/04 12:29:23;;;;;;;7.20;2.63;;;9.90;99.90;;;;;;5048980;28;20046;-76
2021/11/04 12:31:50;;;;;;;3.58;1.80;;;9.90;99.90;;;;;;5041205;28;20038;-77
2021/11/04 12:34:24;;;;;;;2.78;1.63;;;10.00;99.90;;;;;;5038946;28;20097;-76
2021/11/04 12:36:51;;;;;;;4.18;1.70;;;10.00;99.90;;;;;;5042305;28;20034;-77
2021/11/04 12:39:26;;;;;;;5.32;1.40;;;10.20;99.90;;;;;;5043405;28;20081;-78
2021/11/04 12:41:55;;;;;;;3.17;1.27;;;10.10;99.90;;;;;;5041249;28;20048;-76
2021/11/04 12:44:23;;;;;;;3.40;1.50;;;10.20;99.90;;;;;;5032511;28;20067;-76
2021/11/04 12:46:49;;;;;;;2.25;1.20;;;10.30;99.90;;;;;;5043155;28;20030;-77
2021/11/04 12:49:16;;;;;;;7.40;1.63;;;10.30;99.90;;;;;;5042613;28;20017;-76
2021/11/04 12:51:46;;;;;;;2.22;1.15;;;10.20;99.90;;;;;;5042230;28;20026;-78
2021/11/04 12:54:16;;;;;;;3.60;1.67;;;10.10;99.90;;;;;;5035457;28;20010;-77
2021/11/04 12:56:47;;;;;;;3.20;1.35;;;10.10;99.90;;;;;;5028263;28;20113;-78